Time;durP1;ratioP1;P1;durP2;ratioP2;P2;SDS_P1;SDS_P2;PMS_P1;PMS_P2;Temp;Humidity;BMP_temperature;BMP_pressure;BME280_temperature;BME280_humidity;BME280_pressure;Samples;Min_cycle;Max_cycle;Signal;HPM_P1;HPM_P2
2021/01/10 00:00:09;;;;;;;93.18;27.80;;;-3.90;99.90;;;;;;5052209;28;20214;-67
2021/01/10 00:02:35;;;;;;;89.95;25.38;;;-3.90;99.90;;;;;;5052837;28;20415;-67
2021/01/10 00:05:03;;;;;;;87.80;23.98;;;-4.00;99.90;;;;;;5052293;28;20216;-67
2021/01/10 00:07:29;;;;;;;84.13;22.83;;;-4.00;99.90;;;;;;5052256;28;20252;-67
2021/01/10 00:09:57;;;;;;;89.75;23.52;;;-4.00;99.90;;;;;;5051963;28;20296;-67
2021/01/10 00:12:24;;;;;;;91.32;23.10;;;-4.00;99.90;;;;;;5052073;28;20729;-67
2021/01/10 00:14:51;;;;;;;86.57;22.58;;;-4.00;99.90;;;;;;5051968;28;20297;-67
2021/01/10 00:17:19;;;;;;;84.25;21.02;;;-4.10;99.90;;;;;;5052304;28;20255;-67
2021/01/10 00:19:45;;;;;;;84.00;22.73;;;-4.10;99.90;;;;;;5051497;28;20220;-67
2021/01/10 00:22:12;;;;;;;85.97;22.42;;;-4.10;99.90;;;;;;5051980;28;20257;-67
2021/01/10 00:24:40;;;;;;;87.95;22.73;;;-4.10;99.90;;;;;;5051908;28;20216;-67
2021/01/10 00:27:11;;;;;;;90.03;23.30;;;-4.20;99.90;;;;;;5051719;28;20740;-67
2021/01/10 00:29:38;;;;;;;93.05;24.48;;;-4.20;99.90;;;;;;5051036;28;20217;-67
2021/01/10 00:32:05;;;;;;;90.05;22.98;;;-4.20;99.90;;;;;;5052259;28;20202;-67
2021/01/10 00:34:32;;;;;;;85.28;21.25;;;-4.20;99.90;;;;;;5051773;28;20216;-67
2021/01/10 00:36:59;;;;;;;87.97;21.40;;;-4.20;99.90;;;;;;5051643;28;20229;-67
2021/01/10 00:39:25;;;;;;;90.57;24.60;;;-4.20;99.90;;;;;;5051312;28;20217;-67
2021/01/10 00:41:52;;;;;;;82.93;20.55;;;-4.30;99.90;;;;;;5051671;28;20321;-67
2021/01/10 00:44:19;;;;;;;84.05;21.33;;;-4.20;99.90;;;;;;5051887;28;20206;-67
2021/01/10 00:46:45;;;;;;;93.88;25.95;;;-4.30;99.90;;;;;;5051579;28;20230;-67
2021/01/10 00:49:11;;;;;;;99.50;28.00;;;-4.30;99.90;;;;;;5051507;28;20558;-67
2021/01/10 00:51:38;;;;;;;105.70;29.95;;;-4.30;99.90;;;;;;5051369;28;20209;-67
2021/01/10 00:54:04;;;;;;;105.75;29.77;;;-4.30;99.90;;;;;;5051312;28;20241;-67
2021/01/10 00:56:31;;;;;;;92.82;27.48;;;-4.30;99.90;;;;;;5051274;28;20221;-67
2021/01/10 00:58:57;;;;;;;100.78;32.50;;;-4.20;99.90;;;;;;5051089;28;20339;-67
2021/01/10 01:01:24;;;;;;;104.10;34.50;;;-4.20;99.90;;;;;;5051200;28;20584;-67
2021/01/10 01:03:51;;;;;;;97.45;31.00;;;-4.20;99.90;;;;;;5051556;28;20205;-67
2021/01/10 01:06:17;;;;;;;101.32;32.15;;;-4.20;99.90;;;;;;5051380;28;20229;-67
2021/01/10 01:08:44;;;;;;;99.20;30.60;;;-4.10;99.90;;;;;;5050777;28;20211;-67
2021/01/10 01:11:10;;;;;;;99.90;31.52;;;-4.10;99.90;;;;;;5051475;28;20296;-68
2021/01/10 01:13:36;;;;;;;97.05;30.25;;;-4.10;99.90;;;;;;5051339;28;20201;-67
2021/01/10 01:16:07;;;;;;;101.88;29.67;;;-4.20;99.90;;;;;;5051389;28;20225;-67
2021/01/10 01:18:34;;;;;;;94.30;28.88;;;-4.20;99.90;;;;;;5050837;28;20693;-67
2021/01/10 01:21:01;;;;;;;94.43;26.17;;;-4.20;99.90;;;;;;5051153;28;20684;-67
2021/01/10 01:23:27;;;;;;;90.82;24.73;;;-4.20;99.90;;;;;;5050911;28;20704;-67
2021/01/10 01:25:53;;;;;;;90.18;26.02;;;-4.20;99.90;;;;;;5051253;28;20251;-67
2021/01/10 01:28:20;;;;;;;90.93;23.88;;;-4.30;99.90;;;;;;5050888;28;20610;-67
2021/01/10 01:30:47;;;;;;;87.55;22.05;;;-4.30;99.90;;;;;;5051062;28;20221;-67
2021/01/10 01:33:13;;;;;;;84.53;20.95;;;-4.30;99.90;;;;;;5051003;28;20237;-68
2021/01/10 01:35:41;;;;;;;86.45;22.67;;;-4.30;99.90;;;;;;5050970;28;20602;-67
2021/01/10 01:38:07;;;;;;;87.68;20.45;;;-4.30;99.90;;;;;;5051016;28;20218;-67
2021/01/10 01:40:33;;;;;;;87.95;20.85;;;-4.30;99.90;;;;;;5051093;28;20206;-67
2021/01/10 01:43:00;;;;;;;83.80;20.67;;;-4.30;99.90;;;;;;5055371;28;20225;-67
2021/01/10 01:45:26;;;;;;;78.75;20.50;;;-4.40;99.90;;;;;;5060123;28;20215;-67
2021/01/10 01:47:53;;;;;;;82.03;19.60;;;-4.40;99.90;;;;;;5056189;28;20209;-67
2021/01/10 01:50:20;;;;;;;85.68;20.50;;;-4.40;99.90;;;;;;5054445;28;20216;-67
2021/01/10 01:52:47;;;;;;;91.35;22.45;;;-4.40;99.90;;;;;;5055089;28;20202;-68
2021/01/10 01:55:13;;;;;;;84.40;21.23;;;-4.40;99.90;;;;;;5054767;28;20210;-67
2021/01/10 01:57:40;;;;;;;88.07;20.83;;;-4.50;99.90;;;;;;5054575;28;20264;-67
2021/01/10 02:00:08;;;;;;;86.30;20.95;;;-4.50;99.90;;;;;;5054442;28;20763;-67
2021/01/10 02:02:34;;;;;;;85.78;20.90;;;-4.50;99.90;;;;;;5054607;28;20614;-67
2021/01/10 02:05:05;;;;;;;85.15;20.50;;;-4.50;99.90;;;;;;5054693;28;20258;-67
2021/01/10 02:07:39;;;;;;;86.13;21.08;;;-4.60;99.90;;;;;;5054620;28;20595;-67
2021/01/10 02:10:08;;;;;;;85.32;20.95;;;-4.60;99.90;;;;;;5054352;28;20221;-67
2021/01/10 02:12:37;;;;;;;90.55;23.38;;;-4.60;99.90;;;;;;5054487;28;20229;-67
2021/01/10 02:15:09;;;;;;;83.40;20.95;;;-4.60;99.90;;;;;;5054458;28;20240;-67
2021/01/10 02:17:36;;;;;;;83.80;20.85;;;-4.60;99.90;;;;;;5053846;28;20232;-68
2021/01/10 02:20:07;;;;;;;85.55;21.48;;;-4.60;99.90;;;;;;5054501;28;20239;-67
2021/01/10 02:22:49;;;;;;;82.80;18.95;;;-4.60;99.90;;;;;;5054228;28;20267;-67
2021/01/10 02:25:17;;;;;;;83.80;20.48;;;-4.70;99.90;;;;;;5054175;28;20212;-67
2021/01/10 02:27:44;;;;;;;90.25;20.50;;;-4.70;99.90;;;;;;5053660;28;20209;-67
2021/01/10 02:30:12;;;;;;;82.03;19.67;;;-4.70;99.90;;;;;;5054413;28;20609;-67
2021/01/10 02:32:42;;;;;;;84.63;20.95;;;-4.70;99.90;;;;;;5054199;28;20197;-67
2021/01/10 02:35:10;;;;;;;86.10;21.35;;;-4.70;99.90;;;;;;5054177;28;20629;-67
2021/01/10 02:37:53;;;;;;;82.63;20.52;;;-4.70;99.90;;;;;;5053534;28;20263;-68
2021/01/10 02:40:31;;;;;;;83.45;19.10;;;-4.80;99.90;;;;;;5053747;28;20201;-67
2021/01/10 02:43:03;;;;;;;91.15;22.98;;;-4.80;99.90;;;;;;5053699;28;20229;-67
2021/01/10 02:45:32;;;;;;;83.03;19.50;;;-4.80;99.90;;;;;;5054007;28;20209;-67
2021/01/10 02:47:59;;;;;;;86.47;21.30;;;-4.80;99.90;;;;;;5053329;28;20301;-67
2021/01/10 02:50:26;;;;;;;83.20;20.13;;;-4.80;99.90;;;;;;5054275;28;20215;-67
2021/01/10 02:52:54;;;;;;;85.03;19.20;;;-4.80;99.90;;;;;;5052994;28;20284;-67
2021/01/10 02:55:21;;;;;;;80.47;18.88;;;-4.80;99.90;;;;;;5049926;28;20205;-67
2021/01/10 02:57:53;;;;;;;80.82;20.50;;;-4.80;99.90;;;;;;5053281;28;20241;-67
2021/01/10 03:00:22;;;;;;;78.25;17.35;;;-4.80;99.90;;;;;;5053562;28;20241;-67
2021/01/10 03:02:48;;;;;;;83.93;19.70;;;-4.80;99.90;;;;;;5047567;28;20218;-68
2021/01/10 03:05:16;;;;;;;81.78;18.17;;;-4.80;99.90;;;;;;5033510;28;20221;-68
2021/01/10 03:07:44;;;;;;;81.65;19.23;;;-4.90;99.90;;;;;;5033413;28;20213;-68
2021/01/10 03:10:12;;;;;;;91.95;18.75;;;-4.90;99.90;;;;;;5033310;28;20202;-67
2021/01/10 03:12:40;;;;;;;84.10;18.30;;;-4.90;99.90;;;;;;5033598;28;20640;-67
2021/01/10 03:15:08;;;;;;;80.75;18.83;;;-4.90;99.90;;;;;;5033243;28;20524;-67
2021/01/10 03:17:37;;;;;;;79.32;19.67;;;-4.90;99.90;;;;;;5033335;28;20252;-68
2021/01/10 03:20:06;;;;;;;84.55;18.63;;;-4.90;99.90;;;;;;5033240;28;20214;-67
2021/01/10 03:22:33;;;;;;;81.20;18.67;;;-4.90;99.90;;;;;;5033367;28;20225;-67
2021/01/10 03:24:59;;;;;;;77.63;17.77;;;-4.90;99.90;;;;;;5033102;28;20210;-67
2021/01/10 03:27:25;;;;;;;84.45;18.98;;;-5.00;99.90;;;;;;5066841;22;20713;-70
2021/01/10 03:29:53;;;;;;;77.60;16.48;;;-5.00;99.90;;;;;;5032670;28;20708;-71
2021/01/10 03:32:19;;;;;;;82.50;19.45;;;-5.00;99.90;;;;;;5033092;28;20213;-70
2021/01/10 03:34:46;;;;;;;81.45;17.83;;;-5.00;99.90;;;;;;5033250;28;20206;-70
2021/01/10 03:37:12;;;;;;;79.75;17.70;;;-5.00;99.90;;;;;;5032915;28;20324;-71
2021/01/10 03:39:39;;;;;;;81.47;18.05;;;-4.90;99.90;;;;;;5032583;28;20310;-70
2021/01/10 03:42:06;;;;;;;81.70;18.00;;;-4.90;99.90;;;;;;5032594;28;20368;-70
2021/01/10 03:44:32;;;;;;;80.47;18.35;;;-4.90;99.90;;;;;;5032745;28;20202;-70
2021/01/10 03:46:59;;;;;;;79.40;17.67;;;-4.90;99.90;;;;;;5032845;28;20571;-70
2021/01/10 03:49:26;;;;;;;80.70;17.83;;;-4.80;99.90;;;;;;5032670;28;20289;-70
2021/01/10 03:51:52;;;;;;;79.70;18.05;;;-4.80;99.90;;;;;;5032727;28;20275;-70
2021/01/10 03:54:19;;;;;;;79.43;17.65;;;-4.70;99.90;;;;;;5032697;28;20206;-71
2021/01/10 03:56:45;;;;;;;81.15;19.30;;;-4.60;99.90;;;;;;5032489;28;20273;-70
2021/01/10 03:59:11;;;;;;;82.25;18.92;;;-4.50;99.90;;;;;;5032290;28;20210;-70
2021/01/10 04:01:38;;;;;;;81.20;17.98;;;-4.40;99.90;;;;;;5032692;28;20217;-70
2021/01/10 04:04:05;;;;;;;76.75;15.70;;;-4.30;99.90;;;;;;5031439;28;20322;-70
2021/01/10 04:06:32;;;;;;;77.68;18.25;;;-4.20;99.90;;;;;;5032563;28;20222;-70
2021/01/10 04:08:58;;;;;;;80.22;17.38;;;-4.20;99.90;;;;;;5031948;28;20202;-69
2021/01/10 04:11:24;;;;;;;78.05;17.95;;;-4.10;99.90;;;;;;5032137;28;20217;-69
2021/01/10 04:13:51;;;;;;;79.35;19.23;;;-4.00;99.90;;;;;;5032117;28;20696;-70
2021/01/10 04:16:18;;;;;;;76.00;18.42;;;-4.00;99.90;;;;;;5032370;28;20222;-71
2021/01/10 04:18:44;;;;;;;76.45;16.40;;;-3.90;99.90;;;;;;5032098;28;20206;-70
2021/01/10 04:21:11;;;;;;;79.38;17.80;;;-3.90;99.90;;;;;;5032071;28;20210;-70
2021/01/10 04:23:37;;;;;;;82.25;18.45;;;-3.80;99.90;;;;;;5032008;28;20272;-70
2021/01/10 04:26:04;;;;;;;77.65;17.58;;;-3.70;99.90;;;;;;5031726;28;22390;-70
2021/01/10 04:28:31;;;;;;;77.43;18.98;;;-3.70;99.90;;;;;;5032066;28;20217;-69
2021/01/10 04:30:57;;;;;;;79.13;17.67;;;-3.70;99.90;;;;;;5032037;28;20649;-70
2021/01/10 04:33:24;;;;;;;80.90;18.13;;;-3.60;99.90;;;;;;5031945;28;20208;-70
2021/01/10 04:35:50;;;;;;;77.40;16.50;;;-3.60;99.90;;;;;;5031684;28;20210;-70
2021/01/10 04:38:17;;;;;;;79.55;18.48;;;-3.60;99.90;;;;;;5031642;28;20259;-71
2021/01/10 04:40:45;;;;;;;80.88;17.55;;;-3.60;99.90;;;;;;5031644;28;20248;-70
2021/01/10 04:43:11;;;;;;;79.57;16.90;;;-3.50;99.90;;;;;;5031822;28;20299;-69
2021/01/10 04:45:38;;;;;;;82.55;18.27;;;-3.50;99.90;;;;;;5031768;28;20757;-70
2021/01/10 04:48:06;;;;;;;80.68;17.75;;;-3.50;99.90;;;;;;5031239;28;20313;-70
2021/01/10 04:50:34;;;;;;;83.28;19.70;;;-3.40;99.90;;;;;;5031984;28;20206;-70
2021/01/10 04:53:03;;;;;;;82.90;19.73;;;-3.40;99.90;;;;;;5031286;28;20210;-71
2021/01/10 04:55:32;;;;;;;78.25;17.67;;;-3.40;99.90;;;;;;5031746;28;20313;-70
2021/01/10 04:58:04;;;;;;;85.00;19.02;;;-3.30;99.90;;;;;;5031508;28;20226;-70
2021/01/10 05:00:31;;;;;;;76.40;16.30;;;-3.30;99.90;;;;;;5031508;28;20210;-70
2021/01/10 05:03:04;;;;;;;81.93;18.73;;;-3.30;99.90;;;;;;5031457;28;20731;-70
2021/01/10 05:05:34;;;;;;;85.03;19.13;;;-3.20;99.90;;;;;;5031540;28;20210;-70
2021/01/10 05:08:00;;;;;;;75.10;15.68;;;-3.20;99.90;;;;;;5031101;28;20280;-70
2021/01/10 05:10:26;;;;;;;83.90;16.55;;;-3.20;99.90;;;;;;5031203;28;20218;-70
2021/01/10 05:12:54;;;;;;;76.88;18.10;;;-3.20;99.90;;;;;;5031562;28;20203;-70
2021/01/10 05:15:20;;;;;;;77.32;16.80;;;-3.10;99.90;;;;;;5033519;28;20212;-70
2021/01/10 05:17:53;;;;;;;80.95;17.20;;;-3.10;99.90;;;;;;5037739;28;20720;-71
2021/01/10 05:20:20;;;;;;;79.35;17.52;;;-3.10;99.90;;;;;;5037574;28;20202;-71
2021/01/10 05:22:50;;;;;;;75.22;15.57;;;-3.10;99.90;;;;;;5038123;28;20661;-71
2021/01/10 05:25:17;;;;;;;77.97;17.88;;;-3.10;99.90;;;;;;5037924;28;20271;-70
2021/01/10 05:27:46;;;;;;;79.88;16.58;;;-3.00;99.90;;;;;;5037854;28;20321;-70
2021/01/10 05:30:15;;;;;;;87.90;16.90;;;-3.00;99.90;;;;;;5037709;28;20206;-70
2021/01/10 05:32:42;;;;;;;79.07;15.90;;;-3.00;99.90;;;;;;5037821;28;20293;-70
2021/01/10 05:35:09;;;;;;;76.85;16.77;;;-3.00;99.90;;;;;;5037770;28;20677;-69
2021/01/10 05:37:37;;;;;;;74.90;16.02;;;-3.00;99.90;;;;;;5037948;28;20221;-70
2021/01/10 05:40:07;;;;;;;77.57;16.15;;;-2.90;99.90;;;;;;5037690;28;20206;-70
2021/01/10 05:42:35;;;;;;;73.55;14.30;;;-2.90;99.90;;;;;;5037623;28;20233;-70
2021/01/10 05:45:02;;;;;;;74.97;16.30;;;-2.90;99.90;;;;;;5037746;28;20283;-70
2021/01/10 05:47:38;;;;;;;82.22;16.30;;;-2.90;99.90;;;;;;5037377;28;20368;-70
2021/01/10 05:50:14;;;;;;;74.40;15.80;;;-2.90;99.90;;;;;;5037906;28;20209;-70
2021/01/10 05:52:41;;;;;;;78.90;16.38;;;-2.90;99.90;;;;;;5037739;28;20206;-71
2021/01/10 05:55:10;;;;;;;75.75;15.85;;;-2.90;99.90;;;;;;5037758;28;20202;-70
2021/01/10 05:57:36;;;;;;;78.32;17.33;;;-2.90;99.90;;;;;;5036981;28;20713;-70
2021/01/10 06:00:05;;;;;;;78.38;16.65;;;-2.90;99.90;;;;;;5037785;28;20313;-71
2021/01/10 06:02:35;;;;;;;76.38;16.33;;;-2.90;99.90;;;;;;5037476;28;20253;-70
2021/01/10 06:05:11;;;;;;;77.13;16.02;;;-2.90;99.90;;;;;;5037714;28;20208;-69
2021/01/10 06:07:38;;;;;;;79.97;17.33;;;-2.90;99.90;;;;;;5037010;28;20226;-70
2021/01/10 06:10:06;;;;;;;79.72;18.17;;;-2.90;99.90;;;;;;5037451;28;20210;-70
2021/01/10 06:12:33;;;;;;;74.60;15.48;;;-2.90;99.90;;;;;;5037672;28;20289;-71
2021/01/10 06:15:11;;;;;;;74.60;14.77;;;-2.90;99.90;;;;;;5037408;28;20210;-69
2021/01/10 06:17:41;;;;;;;75.00;13.75;;;-2.90;99.90;;;;;;5037318;28;20626;-70
2021/01/10 06:20:18;;;;;;;76.20;15.63;;;-2.80;99.90;;;;;;5037353;28;20214;-70
2021/01/10 06:22:50;;;;;;;76.70;17.30;;;-2.80;99.90;;;;;;5037349;28;20248;-71
2021/01/10 06:25:21;;;;;;;74.90;14.32;;;-2.80;99.90;;;;;;5037616;28;20577;-70
2021/01/10 06:27:52;;;;;;;71.60;14.00;;;-2.80;99.90;;;;;;5033970;28;20231;-70
2021/01/10 06:30:27;;;;;;;70.72;14.00;;;-2.80;99.90;;;;;;5034102;28;20206;-70
2021/01/10 06:33:03;;;;;;;72.93;14.32;;;-2.80;99.90;;;;;;5034325;28;20260;-70
2021/01/10 06:35:34;;;;;;;72.78;14.40;;;-2.80;99.90;;;;;;5034198;28;20256;-71
2021/01/10 06:38:03;;;;;;;74.93;14.70;;;-2.80;99.90;;;;;;5033800;28;20257;-70
2021/01/10 06:40:32;;;;;;;72.75;13.93;;;-2.70;99.90;;;;;;5033938;28;20294;-70
2021/01/10 06:43:02;;;;;;;76.07;16.80;;;-2.70;99.90;;;;;;5034051;28;20226;-70
2021/01/10 06:45:34;;;;;;;76.05;17.38;;;-2.70;99.90;;;;;;5034295;28;20217;-69
2021/01/10 06:48:02;;;;;;;76.78;15.90;;;-2.70;99.90;;;;;;5033619;28;20230;-70
2021/01/10 06:50:29;;;;;;;77.07;17.33;;;-2.70;99.90;;;;;;5033769;28;20252;-70
2021/01/10 06:52:58;;;;;;;75.72;17.75;;;-2.70;99.90;;;;;;5033933;28;20202;-71
2021/01/10 06:55:26;;;;;;;75.85;16.33;;;-2.70;99.90;;;;;;5033938;28;20329;-69
2021/01/10 06:57:52;;;;;;;72.20;14.18;;;-2.70;99.90;;;;;;5033249;28;20258;-71
2021/01/10 07:00:20;;;;;;;72.00;13.95;;;-2.60;99.90;;;;;;5033492;28;20210;-67
2021/01/10 07:03:08;;;;;;;71.68;13.70;;;-2.60;99.90;;;;;;5033714;28;20604;-71
2021/01/10 07:06:02;;;;;;;75.05;15.63;;;-2.60;99.90;;;;;;5033511;28;20206;-69
2021/01/10 07:08:32;;;;;;;82.25;15.77;;;-2.60;99.90;;;;;;5032988;28;20258;-71
2021/01/10 07:11:34;;;;;;;75.93;16.63;;;-2.60;99.90;;;;;;5033816;28;20206;-70
2021/01/10 07:14:26;;;;;;;77.07;16.95;;;-2.60;99.90;;;;;;5033552;28;20211;-70
2021/01/10 07:17:11;;;;;;;77.60;15.73;;;-2.60;99.90;;;;;;5033218;28;20291;-70
2021/01/10 07:19:47;;;;;;;77.10;16.05;;;-2.60;99.90;;;;;;5032951;28;20242;-70
2021/01/10 07:22:30;;;;;;;71.72;14.38;;;-2.60;99.90;;;;;;5033249;28;20207;-69
2021/01/10 07:24:57;;;;;;;75.35;15.18;;;-2.70;99.90;;;;;;5033641;28;20213;-70
2021/01/10 07:27:32;;;;;;;74.38;15.40;;;-2.70;99.90;;;;;;5032813;28;20262;-70
2021/01/10 07:29:59;;;;;;;73.70;14.73;;;-2.70;99.90;;;;;;5033124;28;20202;-70
2021/01/10 07:32:34;;;;;;;80.53;16.02;;;-2.70;99.90;;;;;;5033202;28;20224;-69
2021/01/10 07:35:04;;;;;;;72.22;13.70;;;-2.70;99.90;;;;;;5033017;28;20256;-70
2021/01/10 07:37:31;;;;;;;76.60;16.10;;;-2.70;99.90;;;;;;5032865;28;20608;-70
2021/01/10 07:39:59;;;;;;;79.85;16.45;;;-2.70;99.90;;;;;;5031427;28;20214;-69
2021/01/10 07:42:27;;;;;;;73.78;15.43;;;-2.60;99.90;;;;;;5032963;28;20218;-69
2021/01/10 07:44:55;;;;;;;75.63;16.20;;;-2.60;99.90;;;;;;5032851;28;20198;-69
2021/01/10 07:47:42;;;;;;;74.40;16.40;;;-2.50;99.90;;;;;;5032858;28;20448;-69
2021/01/10 07:50:19;;;;;;;77.32;16.13;;;-2.50;99.90;;;;;;5032526;28;20255;-70
2021/01/10 07:52:54;;;;;;;76.50;15.93;;;-2.50;99.90;;;;;;5032669;28;20251;-69
2021/01/10 07:55:22;;;;;;;76.28;15.68;;;-2.50;99.90;;;;;;5032538;28;20297;-69
2021/01/10 07:57:50;;;;;;;76.00;15.32;;;-2.40;99.90;;;;;;5032676;28;20546;-69
2021/01/10 08:00:19;;;;;;;79.60;17.73;;;-2.40;99.90;;;;;;5032535;28;20209;-68
2021/01/10 08:02:59;;;;;;;78.00;18.30;;;-2.30;99.90;;;;;;5032081;28;20229;-69
2021/01/10 08:05:28;;;;;;;74.93;15.48;;;-2.30;99.90;;;;;;5032837;28;20582;-69
2021/01/10 08:08:04;;;;;;;78.55;17.42;;;-2.30;99.90;;;;;;5032234;28;20713;-69
2021/01/10 08:10:46;;;;;;;78.82;17.33;;;-2.30;99.90;;;;;;5032831;28;20316;-70
2021/01/10 08:13:28;;;;;;;77.22;17.95;;;-2.20;99.90;;;;;;5030164;28;20291;-68
2021/01/10 08:15:55;;;;;;;78.85;16.85;;;-2.20;99.90;;;;;;5032151;28;20214;-69
2021/01/10 08:18:23;;;;;;;76.97;16.77;;;-2.10;99.90;;;;;;5031740;28;20211;-69
2021/01/10 08:20:51;;;;;;;75.35;15.32;;;-2.10;99.90;;;;;;5032141;28;20202;-68
2021/01/10 08:23:18;;;;;;;77.22;15.88;;;-2.10;99.90;;;;;;5031975;28;20226;-68
2021/01/10 08:25:45;;;;;;;79.25;18.08;;;-2.00;99.90;;;;;;5031937;28;20634;-69
2021/01/10 08:28:16;;;;;;;74.65;15.73;;;-2.00;99.90;;;;;;5031597;28;20305;-68
2021/01/10 08:30:43;;;;;;;77.88;17.23;;;-2.00;99.90;;;;;;5032151;28;20212;-69
2021/01/10 08:33:16;;;;;;;79.93;19.05;;;-1.90;99.90;;;;;;5032338;28;20288;-68
2021/01/10 08:35:42;;;;;;;74.10;16.55;;;-1.90;99.90;;;;;;5031978;28;20206;-69
2021/01/10 08:38:10;;;;;;;77.95;17.27;;;-1.80;99.90;;;;;;5031445;28;20779;-68
2021/01/10 08:40:36;;;;;;;77.43;18.08;;;-1.70;99.90;;;;;;5031908;28;20216;-69
2021/01/10 08:43:02;;;;;;;78.40;17.30;;;-1.70;99.90;;;;;;5031789;28;20316;-69
2021/01/10 08:45:29;;;;;;;75.78;16.92;;;-1.60;99.90;;;;;;5032202;28;20206;-68
2021/01/10 08:47:56;;;;;;;76.25;15.95;;;-1.60;99.90;;;;;;5031493;28;20312;-68
2021/01/10 08:50:22;;;;;;;76.85;15.77;;;-1.50;99.90;;;;;;5031167;28;20213;-68
2021/01/10 08:52:56;;;;;;;73.55;16.52;;;-1.40;99.90;;;;;;5031578;28;20210;-69
2021/01/10 08:55:35;;;;;;;77.90;18.27;;;-1.20;99.90;;;;;;5031687;28;20217;-69
2021/01/10 08:58:02;;;;;;;80.47;19.70;;;-1.00;99.90;;;;;;5031436;28;20599;-68
2021/01/10 09:00:30;;;;;;;78.45;17.83;;;-0.90;99.90;;;;;;5031439;28;20206;-69
2021/01/10 09:03:12;;;;;;;77.32;18.08;;;-0.80;99.90;;;;;;5031883;28;20291;-68
2021/01/10 09:05:39;;;;;;;75.90;18.15;;;-0.60;99.90;;;;;;5031796;28;20261;-69
2021/01/10 09:08:10;;;;;;;79.43;17.00;;;-0.60;99.90;;;;;;5031233;28;20226;-68
2021/01/10 09:10:46;;;;;;;82.15;19.80;;;-0.60;99.90;;;;;;5031587;28;20206;-69
2021/01/10 09:13:15;;;;;;;78.57;17.60;;;-0.50;99.90;;;;;;5031400;28;20210;-68
2021/01/10 09:15:45;;;;;;;78.35;16.67;;;-0.50;99.90;;;;;;5031299;28;20202;-69
2021/01/10 09:18:19;;;;;;;78.03;18.08;;;-0.40;99.90;;;;;;5030964;28;20203;-69
2021/01/10 09:20:51;;;;;;;79.35;18.20;;;-0.30;99.90;;;;;;5031536;28;20216;-68
2021/01/10 09:23:18;;;;;;;74.32;16.60;;;-0.30;99.90;;;;;;5031302;28;20221;-69
2021/01/10 09:25:46;;;;;;;79.43;17.65;;;-0.30;99.90;;;;;;5031431;28;20206;-69
2021/01/10 09:28:14;;;;;;;71.65;16.55;;;-0.30;99.90;;;;;;5070613;22;20626;-70
2021/01/10 09:30:41;;;;;;;73.15;15.27;;;-0.30;99.90;;;;;;5051102;28;20695;-70
2021/01/10 09:33:09;;;;;;;77.88;19.38;;;-0.30;99.90;;;;;;5051319;28;20205;-69
2021/01/10 09:35:42;;;;;;;78.15;16.70;;;-0.30;99.90;;;;;;5051443;28;20659;-69
2021/01/10 09:38:13;;;;;;;76.50;17.90;;;-0.20;99.90;;;;;;5050835;28;20239;-69
2021/01/10 09:41:04;;;;;;;74.32;15.93;;;0.00;99.90;;;;;;5050995;28;20209;-69
2021/01/10 09:43:34;;;;;;;79.05;18.48;;;0.20;99.90;;;;;;5051250;28;20316;-67
2021/01/10 09:46:00;;;;;;;79.57;18.00;;;0.40;99.90;;;;;;5051320;28;20205;-67
2021/01/10 09:48:26;;;;;;;79.22;17.88;;;0.60;99.90;;;;;;5050823;28;20300;-67
2021/01/10 09:50:53;;;;;;;78.88;18.20;;;0.80;99.90;;;;;;5050884;28;20491;-67
2021/01/10 09:53:24;;;;;;;81.72;17.60;;;1.00;99.90;;;;;;5050899;28;20668;-67
2021/01/10 09:55:51;;;;;;;78.47;17.08;;;1.20;99.90;;;;;;5051063;28;20205;-67
2021/01/10 09:58:18;;;;;;;79.55;20.00;;;1.40;99.90;;;;;;5050785;28;20294;-67
2021/01/10 10:00:57;;;;;;;75.60;15.80;;;1.60;99.90;;;;;;5050965;28;20213;-67
2021/01/10 10:03:24;;;;;;;75.80;15.98;;;1.90;99.90;;;;;;5053704;28;20599;-66
2021/01/10 10:05:57;;;;;;;74.85;16.77;;;2.20;99.90;;;;;;5054740;28;20545;-67
2021/01/10 10:08:24;;;;;;;73.35;16.38;;;2.50;99.90;;;;;;5054600;28;20232;-69
2021/01/10 10:10:50;;;;;;;74.68;15.50;;;2.80;99.90;;;;;;5054587;28;20201;-69
2021/01/10 10:13:25;;;;;;;68.57;13.15;;;3.20;99.90;;;;;;5054643;28;20211;-69
2021/01/10 10:15:54;;;;;;;69.68;13.38;;;3.80;99.90;;;;;;5054390;28;20579;-69
2021/01/10 10:18:22;;;;;;;69.90;13.90;;;4.40;99.90;;;;;;5054061;28;20363;-66
2021/01/10 10:20:49;;;;;;;70.05;14.43;;;5.30;99.90;;;;;;5054280;28;20810;-67
2021/01/10 10:23:15;;;;;;;69.53;13.17;;;6.40;99.90;;;;;;5054569;28;20250;-67
2021/01/10 10:25:43;;;;;;;67.80;13.83;;;7.70;99.90;;;;;;5054757;28;20443;-67
2021/01/10 10:28:10;;;;;;;65.77;12.50;;;8.90;87.30;;;;;;5053713;28;20487;-67
2021/01/10 10:30:38;;;;;;;67.57;12.60;;;10.00;63.00;;;;;;5053938;28;20487;-67
2021/01/10 10:33:05;;;;;;;66.37;12.20;;;10.90;33.70;;;;;;5054420;28;20455;-67
2021/01/10 10:35:32;;;;;;;67.13;12.30;;;11.70;25.70;;;;;;5054343;28;20448;-67
2021/01/10 10:37:59;;;;;;;65.60;11.03;;;12.40;20.10;;;;;;5053573;28;20468;-68
2021/01/10 10:40:26;;;;;;;62.60;9.60;;;12.90;16.70;;;;;;5054153;28;20451;-67
2021/01/10 10:42:52;;;;;;;63.80;10.30;;;13.40;14.90;;;;;;5053861;28;20519;-67
2021/01/10 10:45:19;;;;;;;68.17;10.13;;;13.80;13.90;;;;;;5053751;28;20448;-67
2021/01/10 10:47:46;;;;;;;64.60;11.03;;;14.40;12.70;;;;;;5053650;28;20527;-67
2021/01/10 10:50:13;;;;;;;63.90;9.37;;;14.90;12.20;;;;;;5053936;28;20458;-67
2021/01/10 10:52:40;;;;;;;62.10;8.97;;;15.50;9.70;;;;;;5053963;28;20806;-67
2021/01/10 10:55:07;;;;;;;63.00;9.53;;;15.80;7.80;;;;;;5053692;28;20947;-68
2021/01/10 10:57:35;;;;;;;62.43;9.23;;;16.10;7.00;;;;;;5053948;28;20842;-68
2021/01/10 11:00:03;;;;;;;64.10;10.33;;;16.40;6.00;;;;;;5053546;28;20969;-67
2021/01/10 11:02:29;;;;;;;62.87;9.60;;;16.60;6.20;;;;;;5053850;28;20461;-67
2021/01/10 11:04:56;;;;;;;61.50;9.07;;;16.90;5.20;;;;;;5053485;28;20949;-67
2021/01/10 11:07:22;;;;;;;63.23;10.40;;;17.30;5.40;;;;;;5053661;28;20835;-68
2021/01/10 11:09:48;;;;;;;64.50;9.97;;;17.50;4.20;;;;;;5053120;28;21023;-68
2021/01/10 11:12:15;;;;;;;61.80;9.40;;;17.80;4.40;;;;;;5053365;28;20447;-68
2021/01/10 11:14:42;;;;;;;63.10;9.47;;;18.20;4.20;;;;;;5053306;28;20826;-68
2021/01/10 11:17:09;;;;;;;63.10;9.70;;;18.70;3.90;;;;;;5053754;28;20480;-68
2021/01/10 11:19:36;;;;;;;61.97;9.63;;;19.00;3.60;;;;;;5053113;28;20927;-67
2021/01/10 11:22:05;;;;;;;61.67;9.40;;;19.30;3.20;;;;;;5053363;28;20457;-67
2021/01/10 11:24:31;;;;;;;61.47;8.87;;;19.40;2.10;;;;;;5053187;28;20489;-68
2021/01/10 11:26:58;;;;;;;64.90;13.03;;;19.30;1.00;;;;;;5052746;28;21028;-68
2021/01/10 11:29:25;;;;;;;63.17;10.00;;;19.30;1.00;;;;;;5053156;28;20456;-68
2021/01/10 11:31:52;;;;;;;62.47;9.70;;;18.60;1.00;;;;;;5053198;28;20456;-68
2021/01/10 11:34:18;;;;;;;62.43;9.37;;;18.10;1.90;;;;;;5053283;28;20815;-67
2021/01/10 11:36:46;;;;;;;63.77;8.90;;;17.50;1.00;;;;;;5053022;28;20475;-67
2021/01/10 11:39:14;;;;;;;62.07;9.50;;;16.20;1.00;;;;;;5052863;28;20870;-67
2021/01/10 11:41:45;;;;;;;62.40;9.43;;;15.50;2.00;;;;;;5052794;28;20496;-66
2021/01/10 11:44:12;;;;;;;62.90;9.60;;;15.30;1.00;;;;;;5052748;28;20521;-67
2021/01/10 11:46:41;;;;;;;63.23;10.07;;;14.30;1.00;;;;;;5052833;28;20476;-68
2021/01/10 11:49:07;;;;;;;63.90;10.43;;;13.20;2.00;;;;;;5052469;28;20456;-67
2021/01/10 11:51:33;;;;;;;63.47;9.07;;;12.60;1.10;;;;;;5052723;28;21011;-67
2021/01/10 11:54:00;;;;;;;60.90;8.57;;;11.70;1.60;;;;;;5052400;28;20481;-67
2021/01/10 11:56:27;;;;;;;63.67;8.63;;;10.80;3.00;;;;;;5052779;28;20440;-67
2021/01/10 11:58:53;;;;;;;68.70;9.60;;;11.10;6.10;;;;;;5052199;28;20459;-67
2021/01/10 12:01:19;;;;;;;63.67;10.13;;;11.30;3.40;;;;;;5052626;28;20447;-68
2021/01/10 12:03:47;;;;;;;61.17;8.43;;;10.60;1.90;;;;;;5052436;28;20563;-68
2021/01/10 12:06:18;;;;;;;63.40;9.63;;;10.40;6.00;;;;;;5052368;28;20456;-68
2021/01/10 12:08:45;;;;;;;63.00;8.80;;;10.20;2.80;;;;;;5051912;28;20456;-67
2021/01/10 12:11:13;;;;;;;63.37;9.00;;;9.60;4.50;;;;;;5052201;28;20549;-67
2021/01/10 12:13:40;;;;;;;63.07;8.40;;;9.20;9.70;;;;;;5052323;28;20444;-68
2021/01/10 12:16:07;;;;;;;63.40;9.03;;;9.00;6.30;;;;;;5052525;28;20922;-67
2021/01/10 12:18:33;;;;;;;63.67;8.90;;;8.50;6.10;;;;;;5051718;28;21046;-68
2021/01/10 12:20:59;;;;;;;63.57;8.97;;;8.10;7.30;;;;;;5051784;28;20465;-67
2021/01/10 12:23:26;;;;;;;62.15;8.52;;;7.50;7.30;;;;;;5052235;28;20489;-67
2021/01/10 12:25:52;;;;;;;64.40;8.98;;;7.10;7.90;;;;;;5051439;28;20589;-67
2021/01/10 12:28:18;;;;;;;61.65;7.95;;;6.90;8.90;;;;;;5051831;28;20283;-68
2021/01/10 12:30:45;;;;;;;61.58;8.18;;;6.70;9.90;;;;;;5051913;28;20238;-68
2021/01/10 12:33:12;;;;;;;61.75;7.75;;;6.50;9.70;;;;;;5052439;28;20206;-68
2021/01/10 12:35:38;;;;;;;61.08;7.55;;;6.40;10.00;;;;;;5051675;28;20206;-68
2021/01/10 12:38:04;;;;;;;59.10;6.25;;;6.20;9.70;;;;;;5051490;28;20646;-67